Manila Luzon Island, Philippines

4:58 AM PHT on August 28, 2014 (GMT +0800)
Dasmarinas | Change Station
CLOSE
Current Station
Personal Weather Station
Location: Makati, METRO MANILA
Elevation: 49 ft
Nearby Weather Stations

Elev 49 ft 14.55 °N, 121.03 °E | Updated 3 minutes ago

Mostly Cloudy
Mostly Cloudy
79.1 °F
Feels Like 83 °F
N
0.0
Wind Variable Wind from SE
Gusts 0.0 mph

Today
High -- | Low -- °F
--% Chance of Precip.
Yesterday
High -- | Low -- °F
Precip. -- in
5:43 AM 6:11 PM
Waxing Crescent, 5% visible
Pressure 29.83 in
Visibility 6.2 miles
Clouds Scattered Clouds 2000 ft
Mostly Cloudy 10000 ft
Heat Index 83 °F
Dew Point 76 °F
Humidity 90%
Rainfall 0.00 in
Snow Depth Not available.
UV 0 out of 12
Pollen Not available.
Air Quality Not available.
Flu Activity Not available.
METAR RPLL 272000Z 12003KT 9999 SCT020 BKN100 27/26 Q1010 NOSIG RMK A2983

More Conditions Fewer Conditions

Pressure 29.83 in
Visibility 6.2 miles
Clouds Scattered Clouds 2000 ft
Mostly Cloudy 10000 ft
Heat Index 83 °F
Dew Point 76 °F
Humidity 90%
Rainfall 0.00 in
Snow Depth Not available.
UV 0 out of 12
Pollen Not available.
Air Quality Not available.
Flu Activity Not available.
METAR RPLL 272000Z 12003KT 9999 SCT020 BKN100 27/26 Q1010 NOSIG RMK A2983

More Conditions Fewer Conditions

10-Day Weather Forecast

Almanac

Astronomy

Aug. 28, 2014 Rise Set
Actual Time 5:43 AM PHT 6:11 PM PHT
Civil Twilight 5:21 AM PHT 6:32 PM PHT
Nautical Twilight 4:56 AM PHT 6:58 PM PHT
Astronomical Twilight 4:30 AM PHT 7:23 PM PHT
Moon 7:34 AM PHT (8/28) 7:49 PM PHT (8/28)
Length of Visible Light 13h 10m
Length of Day
12h 27m
Tomorrow will be 0m 47s shorter.
Waxing Crescent, 5% of the Moon is Illuminated
Aug 27
Waxing Crescent
Sep 2
First Quarter
Sep 8
Full
Sep 15
Last Quarter
Sep 24
New

Yesterday's Extremes

Country Highs Country Lows

Community

WunderPhotos

Upload Photos

1,747,781 photos uploaded!

Nearby

Snow Depth

Not available.

Earthquake Activity

City Distance Mag. Time & Date
No recent earthquake activity has been reported nearby.
Minimum magnitude displayed is 2.5.

Coastal Water Temperatures

Place Temperature
No Stations Reporting

Nearby Weather Stations